sensor_id;sensor_type;location;lat;lon;timestamp;P1;durP1;ratioP1;P2;durP2;ratioP2
9801;SDS011;4940;50.900;4.672;2022-09-04T00:01:51;6.15;;;4.68;;
9801;SDS011;4940;50.900;4.672;2022-09-04T00:04:30;6.65;;;4.45;;
9801;SDS011;4940;50.900;4.672;2022-09-04T00:07:07;9.50;;;4.68;;
9801;SDS011;4940;50.900;4.672;2022-09-04T00:09:46;7.90;;;4.38;;
9801;SDS011;4940;50.900;4.672;2022-09-04T00:12:40;5.07;;;4.22;;
9801;SDS011;4940;50.900;4.672;2022-09-04T00:15:12;6.90;;;4.18;;
9801;SDS011;4940;50.900;4.672;2022-09-04T00:17:43;5.55;;;4.60;;
9801;SDS011;4940;50.900;4.672;2022-09-04T00:20:17;5.28;;;4.20;;
9801;SDS011;4940;50.900;4.672;2022-09-04T00:22:51;7.75;;;4.82;;
9801;SDS011;4940;50.900;4.672;2022-09-04T00:25:27;5.57;;;4.70;;
9801;SDS011;4940;50.900;4.672;2022-09-04T00:28:02;4.80;;;4.30;;
9801;SDS011;4940;50.900;4.672;2022-09-04T00:30:34;6.50;;;4.93;;
9801;SDS011;4940;50.900;4.672;2022-09-04T00:33:16;4.55;;;4.00;;
9801;SDS011;4940;50.900;4.672;2022-09-04T00:35:51;8.75;;;4.30;;
9801;SDS011;4940;50.900;4.672;2022-09-04T00:38:25;6.43;;;4.97;;
9801;SDS011;4940;50.900;4.672;2022-09-04T00:41:01;6.97;;;4.25;;
9801;SDS011;4940;50.900;4.672;2022-09-04T00:46:58;7.55;;;4.78;;
9801;SDS011;4940;50.900;4.672;2022-09-04T00:49:48;6.38;;;4.22;;
9801;SDS011;4940;50.900;4.672;2022-09-04T00:52:32;4.65;;;3.88;;
9801;SDS011;4940;50.900;4.672;2022-09-04T00:55:23;6.05;;;4.03;;
9801;SDS011;4940;50.900;4.672;2022-09-04T00:58:08;5.55;;;4.30;;
9801;SDS011;4940;50.900;4.672;2022-09-04T01:00:45;4.80;;;4.10;;
9801;SDS011;4940;50.900;4.672;2022-09-04T01:03:30;6.35;;;4.28;;
9801;SDS011;4940;50.900;4.672;2022-09-04T01:06:30;9.30;;;4.00;;
9801;SDS011;4940;50.900;4.672;2022-09-04T01:09:23;6.70;;;4.55;;
9801;SDS011;4940;50.900;4.672;2022-09-04T01:12:14;6.80;;;4.20;;
9801;SDS011;4940;50.900;4.672;2022-09-04T01:15:04;5.78;;;4.53;;
9801;SDS011;4940;50.900;4.672;2022-09-04T01:17:41;7.03;;;4.85;;
9801;SDS011;4940;50.900;4.672;2022-09-04T01:20:20;6.07;;;4.40;;
9801;SDS011;4940;50.900;4.672;2022-09-04T01:23:06;10.07;;;4.80;;
9801;SDS011;4940;50.900;4.672;2022-09-04T01:26:01;5.55;;;4.90;;
9801;SDS011;4940;50.900;4.672;2022-09-04T01:28:34;5.63;;;4.18;;
9801;SDS011;4940;50.900;4.672;2022-09-04T01:31:11;7.85;;;4.85;;
9801;SDS011;4940;50.900;4.672;2022-09-04T01:33:49;5.78;;;4.53;;
9801;SDS011;4940;50.900;4.672;2022-09-04T01:36:26;5.53;;;4.22;;
9801;SDS011;4940;50.900;4.672;2022-09-04T01:39:01;5.75;;;4.70;;
9801;SDS011;4940;50.900;4.672;2022-09-04T01:41:31;8.93;;;5.05;;
9801;SDS011;4940;50.900;4.672;2022-09-04T01:44:02;6.97;;;4.57;;
9801;SDS011;4940;50.900;4.672;2022-09-04T01:46:40;6.40;;;4.60;;
9801;SDS011;4940;50.900;4.672;2022-09-04T01:49:22;5.95;;;4.40;;
9801;SDS011;4940;50.900;4.672;2022-09-04T01:51:59;6.43;;;4.22;;
9801;SDS011;4940;50.900;4.672;2022-09-04T01:54:45;8.35;;;4.63;;
9801;SDS011;4940;50.900;4.672;2022-09-04T01:57:26;6.03;;;4.75;;
9801;SDS011;4940;50.900;4.672;2022-09-04T02:00:03;5.70;;;4.55;;
9801;SDS011;4940;50.900;4.672;2022-09-04T02:02:38;7.00;;;4.20;;
9801;SDS011;4940;50.900;4.672;2022-09-04T02:05:19;6.10;;;4.38;;
9801;SDS011;4940;50.900;4.672;2022-09-04T02:07:56;7.68;;;4.68;;
9801;SDS011;4940;50.900;4.672;2022-09-04T02:10:44;9.45;;;5.05;;
9801;SDS011;4940;50.900;4.672;2022-09-04T02:13:22;6.75;;;4.95;;
9801;SDS011;4940;50.900;4.672;2022-09-04T02:16:01;5.70;;;4.45;;
9801;SDS011;4940;50.900;4.672;2022-09-04T02:18:42;6.50;;;4.95;;
9801;SDS011;4940;50.900;4.672;2022-09-04T02:21:26;8.75;;;4.50;;
9801;SDS011;4940;50.900;4.672;2022-09-04T02:24:01;8.68;;;4.68;;
9801;SDS011;4940;50.900;4.672;2022-09-04T02:26:39;6.88;;;4.55;;
9801;SDS011;4940;50.900;4.672;2022-09-04T02:29:14;6.82;;;4.38;;
9801;SDS011;4940;50.900;4.672;2022-09-04T02:31:49;7.20;;;4.20;;
9801;SDS011;4940;50.900;4.672;2022-09-04T02:34:26;7.03;;;4.40;;
9801;SDS011;4940;50.900;4.672;2022-09-04T02:37:02;7.22;;;4.43;;
9801;SDS011;4940;50.900;4.672;2022-09-04T02:39:37;5.00;;;4.15;;
9801;SDS011;4940;50.900;4.672;2022-09-04T02:42:16;10.10;;;4.45;;
9801;SDS011;4940;50.900;4.672;2022-09-04T02:44:54;6.20;;;4.80;;
9801;SDS011;4940;50.900;4.672;2022-09-04T02:47:35;7.15;;;4.45;;
9801;SDS011;4940;50.900;4.672;2022-09-04T02:50:09;6.80;;;4.65;;
9801;SDS011;4940;50.900;4.672;2022-09-04T02:52:50;7.70;;;4.47;;
9801;SDS011;4940;50.900;4.672;2022-09-04T02:55:30;6.20;;;4.57;;
9801;SDS011;4940;50.900;4.672;2022-09-04T02:58:11;6.03;;;3.92;;
9801;SDS011;4940;50.900;4.672;2022-09-04T03:00:46;6.50;;;4.22;;
9801;SDS011;4940;50.900;4.672;2022-09-04T03:03:23;8.02;;;4.60;;
9801;SDS011;4940;50.900;4.672;2022-09-04T03:05:58;6.00;;;4.28;;
9801;SDS011;4940;50.900;4.672;2022-09-04T03:08:29;7.63;;;4.20;;
9801;SDS011;4940;50.900;4.672;2022-09-04T03:11:01;6.97;;;4.53;;
9801;SDS011;4940;50.900;4.672;2022-09-04T03:13:38;8.10;;;4.43;;
9801;SDS011;4940;50.900;4.672;2022-09-04T03:16:17;6.40;;;4.38;;
9801;SDS011;4940;50.900;4.672;2022-09-04T03:18:55;6.22;;;3.97;;
9801;SDS011;4940;50.900;4.672;2022-09-04T03:21:31;7.68;;;4.35;;
9801;SDS011;4940;50.900;4.672;2022-09-04T03:24:06;8.18;;;4.55;;
9801;SDS011;4940;50.900;4.672;2022-09-04T03:26:40;5.82;;;4.20;;
9801;SDS011;4940;50.900;4.672;2022-09-04T03:29:11;5.22;;;3.95;;
9801;SDS011;4940;50.900;4.672;2022-09-04T03:31:52;9.02;;;4.32;;
9801;SDS011;4940;50.900;4.672;2022-09-04T03:34:32;7.90;;;4.90;;
9801;SDS011;4940;50.900;4.672;2022-09-04T03:43:25;8.68;;;4.28;;
9801;SDS011;4940;50.900;4.672;2022-09-04T03:46:07;6.75;;;4.20;;
9801;SDS011;4940;50.900;4.672;2022-09-04T03:48:48;7.20;;;4.20;;
9801;SDS011;4940;50.900;4.672;2022-09-04T03:51:27;6.05;;;4.10;;
9801;SDS011;4940;50.900;4.672;2022-09-04T03:54:06;5.30;;;3.95;;
9801;SDS011;4940;50.900;4.672;2022-09-04T03:59:43;7.05;;;4.28;;
9801;SDS011;4940;50.900;4.672;2022-09-04T04:02:26;5.13;;;3.72;;
9801;SDS011;4940;50.900;4.672;2022-09-04T04:05:08;6.68;;;4.60;;
9801;SDS011;4940;50.900;4.672;2022-09-04T04:07:55;7.70;;;4.32;;
9801;SDS011;4940;50.900;4.672;2022-09-04T04:10:37;6.93;;;4.18;;
9801;SDS011;4940;50.900;4.672;2022-09-04T04:13:23;8.90;;;4.53;;
9801;SDS011;4940;50.900;4.672;2022-09-04T04:16:14;6.55;;;4.10;;
9801;SDS011;4940;50.900;4.672;2022-09-04T04:19:02;7.90;;;4.57;;
9801;SDS011;4940;50.900;4.672;2022-09-04T04:21:46;5.25;;;3.75;;
9801;SDS011;4940;50.900;4.672;2022-09-04T04:24:29;6.13;;;4.15;;
9801;SDS011;4940;50.900;4.672;2022-09-04T04:27:22;6.50;;;4.05;;
9801;SDS011;4940;50.900;4.672;2022-09-04T04:30:02;5.65;;;4.25;;
9801;SDS011;4940;50.900;4.672;2022-09-04T04:35:37;7.45;;;4.07;;
9801;SDS011;4940;50.900;4.672;2022-09-04T04:41:20;8.10;;;4.13;;
9801;SDS011;4940;50.900;4.672;2022-09-04T04:43:59;4.55;;;4.05;;
9801;SDS011;4940;50.900;4.672;2022-09-04T04:46:42;6.35;;;4.35;;
9801;SDS011;4940;50.900;4.672;2022-09-04T04:49:25;6.18;;;4.03;;
9801;SDS011;4940;50.900;4.672;2022-09-04T04:52:11;9.48;;;4.35;;
9801;SDS011;4940;50.900;4.672;2022-09-04T04:57:47;5.50;;;4.15;;
9801;SDS011;4940;50.900;4.672;2022-09-04T05:00:29;5.40;;;3.90;;
9801;SDS011;4940;50.900;4.672;2022-09-04T05:03:03;5.30;;;3.83;;
9801;SDS011;4940;50.900;4.672;2022-09-04T05:05:44;7.45;;;3.72;;
9801;SDS011;4940;50.900;4.672;2022-09-04T05:08:20;5.80;;;3.33;;
9801;SDS011;4940;50.900;4.672;2022-09-04T05:10:58;7.25;;;4.05;;
9801;SDS011;4940;50.900;4.672;2022-09-04T05:13:32;6.47;;;4.10;;
9801;SDS011;4940;50.900;4.672;2022-09-04T05:16:07;7.93;;;3.97;;
9801;SDS011;4940;50.900;4.672;2022-09-04T05:18:43;8.32;;;3.92;;
9801;SDS011;4940;50.900;4.672;2022-09-04T05:21:16;4.70;;;3.58;;
9801;SDS011;4940;50.900;4.672;2022-09-04T05:23:49;6.22;;;3.78;;
9801;SDS011;4940;50.900;4.672;2022-09-04T05:26:25;5.00;;;3.65;;
9801;SDS011;4940;50.900;4.672;2022-09-04T05:29:00;5.75;;;3.53;;
9801;SDS011;4940;50.900;4.672;2022-09-04T05:31:36;5.38;;;3.72;;
9801;SDS011;4940;50.900;4.672;2022-09-04T05:34:07;9.20;;;4.25;;
9801;SDS011;4940;50.900;4.672;2022-09-04T05:36:43;5.93;;;4.28;;
9801;SDS011;4940;50.900;4.672;2022-09-04T05:39:17;7.15;;;3.90;;
9801;SDS011;4940;50.900;4.672;2022-09-04T05:41:58;4.85;;;3.80;;
9801;SDS011;4940;50.900;4.672;2022-09-04T05:44:44;20.67;;;14.57;;
9801;SDS011;4940;50.900;4.672;2022-09-04T05:47:23;5.65;;;4.25;;
9801;SDS011;4940;50.900;4.672;2022-09-04T05:53:11;5.80;;;3.70;;
9801;SDS011;4940;50.900;4.672;2022-09-04T05:56:20;7.30;;;4.38;;
9801;SDS011;4940;50.900;4.672;2022-09-04T05:59:25;5.97;;;3.55;;
9801;SDS011;4940;50.900;4.672;2022-09-04T06:02:29;6.22;;;3.85;;
9801;SDS011;4940;50.900;4.672;2022-09-04T06:05:17;5.50;;;3.83;;
9801;SDS011;4940;50.900;4.672;2022-09-04T06:07:55;6.93;;;4.25;;
9801;SDS011;4940;50.900;4.672;2022-09-04T06:10:36;5.07;;;3.60;;
9801;SDS011;4940;50.900;4.672;2022-09-04T06:13:17;7.22;;;3.97;;
9801;SDS011;4940;50.900;4.672;2022-09-04T06:16:04;6.88;;;4.40;;
9801;SDS011;4940;50.900;4.672;2022-09-04T06:21:53;6.72;;;3.67;;
9801;SDS011;4940;50.900;4.672;2022-09-04T06:24:41;9.30;;;4.28;;
9801;SDS011;4940;50.900;4.672;2022-09-04T06:27:28;8.05;;;4.43;;
9801;SDS011;4940;50.900;4.672;2022-09-04T06:30:11;7.60;;;4.55;;
9801;SDS011;4940;50.900;4.672;2022-09-04T06:35:43;8.98;;;3.97;;
9801;SDS011;4940;50.900;4.672;2022-09-04T06:38:31;7.75;;;4.40;;
9801;SDS011;4940;50.900;4.672;2022-09-04T06:44:06;7.78;;;4.40;;
9801;SDS011;4940;50.900;4.672;2022-09-04T06:46:41;7.85;;;4.43;;
9801;SDS011;4940;50.900;4.672;2022-09-04T06:49:16;7.72;;;4.28;;
9801;SDS011;4940;50.900;4.672;2022-09-04T06:51:53;6.53;;;4.03;;
9801;SDS011;4940;50.900;4.672;2022-09-04T06:54:36;8.00;;;4.32;;
9801;SDS011;4940;50.900;4.672;2022-09-04T06:57:21;9.05;;;4.57;;
9801;SDS011;4940;50.900;4.672;2022-09-04T07:00:11;8.15;;;4.28;;
9801;SDS011;4940;50.900;4.672;2022-09-04T07:02:57;9.70;;;4.30;;
9801;SDS011;4940;50.900;4.672;2022-09-04T07:05:51;6.43;;;4.25;;
9801;SDS011;4940;50.900;4.672;2022-09-04T07:08:27;7.88;;;4.57;;
9801;SDS011;4940;50.900;4.672;2022-09-04T07:11:07;6.18;;;4.10;;
9801;SDS011;4940;50.900;4.672;2022-09-04T07:13:47;8.60;;;4.47;;
9801;SDS011;4940;50.900;4.672;2022-09-04T07:16:28;7.68;;;4.00;;
9801;SDS011;4940;50.900;4.672;2022-09-04T07:19:04;9.05;;;4.32;;
9801;SDS011;4940;50.900;4.672;2022-09-04T07:21:53;6.43;;;3.85;;
9801;SDS011;4940;50.900;4.672;2022-09-04T07:24:55;7.20;;;4.30;;
9801;SDS011;4940;50.900;4.672;2022-09-04T07:27:35;9.45;;;4.85;;
9801;SDS011;4940;50.900;4.672;2022-09-04T07:30:11;8.45;;;3.92;;
9801;SDS011;4940;50.900;4.672;2022-09-04T07:32:41;5.32;;;3.65;;
9801;SDS011;4940;50.900;4.672;2022-09-04T07:35:15;7.47;;;4.00;;
9801;SDS011;4940;50.900;4.672;2022-09-04T07:37:49;6.82;;;3.97;;
9801;SDS011;4940;50.900;4.672;2022-09-04T07:40:25;8.23;;;4.10;;
9801;SDS011;4940;50.900;4.672;2022-09-04T07:43:02;7.10;;;3.22;;
9801;SDS011;4940;50.900;4.672;2022-09-04T07:45:36;5.53;;;3.53;;
9801;SDS011;4940;50.900;4.672;2022-09-04T07:48:14;4.10;;;2.90;;
9801;SDS011;4940;50.900;4.672;2022-09-04T07:50:51;5.03;;;2.90;;
9801;SDS011;4940;50.900;4.672;2022-09-04T07:53:51;6.03;;;3.10;;
9801;SDS011;4940;50.900;4.672;2022-09-04T07:56:32;4.70;;;3.40;;
9801;SDS011;4940;50.900;4.672;2022-09-04T07:59:20;5.85;;;3.25;;
9801;SDS011;4940;50.900;4.672;2022-09-04T08:02:17;3.22;;;2.63;;
9801;SDS011;4940;50.900;4.672;2022-09-04T08:11:07;4.45;;;2.60;;
9801;SDS011;4940;50.900;4.672;2022-09-04T08:13:56;3.05;;;2.75;;
9801;SDS011;4940;50.900;4.672;2022-09-04T08:16:46;3.00;;;2.50;;
9801;SDS011;4940;50.900;4.672;2022-09-04T08:19:32;3.22;;;2.58;;
9801;SDS011;4940;50.900;4.672;2022-09-04T08:22:07;4.60;;;2.35;;
9801;SDS011;4940;50.900;4.672;2022-09-04T08:30:46;4.65;;;2.70;;
9801;SDS011;4940;50.900;4.672;2022-09-04T08:33:29;2.67;;;2.35;;
9801;SDS011;4940;50.900;4.672;2022-09-04T08:36:09;4.15;;;3.08;;
9801;SDS011;4940;50.900;4.672;2022-09-04T08:38:52;4.40;;;2.58;;
9801;SDS011;4940;50.900;4.672;2022-09-04T08:41:34;3.97;;;2.72;;
9801;SDS011;4940;50.900;4.672;2022-09-04T08:44:59;3.85;;;2.78;;
9801;SDS011;4940;50.900;4.672;2022-09-04T08:54:34;4.03;;;2.60;;
9801;SDS011;4940;50.900;4.672;2022-09-04T08:57:37;4.35;;;2.63;;
9801;SDS011;4940;50.900;4.672;2022-09-04T09:00:16;3.75;;;2.50;;
9801;SDS011;4940;50.900;4.672;2022-09-04T09:02:55;3.25;;;2.95;;
9801;SDS011;4940;50.900;4.672;2022-09-04T09:12:08;3.45;;;3.00;;
9801;SDS011;4940;50.900;4.672;2022-09-04T09:15:07;2.53;;;2.30;;
9801;SDS011;4940;50.900;4.672;2022-09-04T09:17:55;3.95;;;2.70;;
9801;SDS011;4940;50.900;4.672;2022-09-04T09:20:27;2.95;;;2.53;;
9801;SDS011;4940;50.900;4.672;2022-09-04T09:25:48;3.13;;;2.80;;
9801;SDS011;4940;50.900;4.672;2022-09-04T09:34:26;2.83;;;2.60;;
9801;SDS011;4940;50.900;4.672;2022-09-04T09:37:32;2.50;;;2.30;;
9801;SDS011;4940;50.900;4.672;2022-09-04T09:43:26;2.70;;;2.50;;
9801;SDS011;4940;50.900;4.672;2022-09-04T09:49:45;2.63;;;2.40;;
9801;SDS011;4940;50.900;4.672;2022-09-04T10:08:11;2.22;;;2.03;;
9801;SDS011;4940;50.900;4.672;2022-09-04T10:11:08;2.30;;;2.10;;
9801;SDS011;4940;50.900;4.672;2022-09-04T10:17:03;1.95;;;1.85;;
9801;SDS011;4940;50.900;4.672;2022-09-04T10:28:56;2.60;;;1.90;;
9801;SDS011;4940;50.900;4.672;2022-09-04T10:31:54;3.97;;;2.08;;
9801;SDS011;4940;50.900;4.672;2022-09-04T10:34:41;2.75;;;2.13;;
9801;SDS011;4940;50.900;4.672;2022-09-04T10:37:26;4.28;;;2.30;;
9801;SDS011;4940;50.900;4.672;2022-09-04T10:40:14;2.70;;;1.83;;
9801;SDS011;4940;50.900;4.672;2022-09-04T10:43:12;2.40;;;2.20;;
9801;SDS011;4940;50.900;4.672;2022-09-04T10:45:52;3.15;;;2.10;;
9801;SDS011;4940;50.900;4.672;2022-09-04T10:51:42;8.68;;;2.25;;
9801;SDS011;4940;50.900;4.672;2022-09-04T10:54:34;2.17;;;2.08;;
9801;SDS011;4940;50.900;4.672;2022-09-04T10:57:23;2.00;;;1.90;;
9801;SDS011;4940;50.900;4.672;2022-09-04T11:00:06;2.20;;;2.10;;
9801;SDS011;4940;50.900;4.672;2022-09-04T11:11:58;2.35;;;2.03;;
9801;SDS011;4940;50.900;4.672;2022-09-04T11:15:02;2.33;;;2.22;;
9801;SDS011;4940;50.900;4.672;2022-09-04T11:21:10;2.97;;;2.22;;
9801;SDS011;4940;50.900;4.672;2022-09-04T11:24:22;2.35;;;2.17;;
9801;SDS011;4940;50.900;4.672;2022-09-04T11:30:37;2.67;;;2.00;;
9801;SDS011;4940;50.900;4.672;2022-09-04T11:33:31;2.40;;;1.70;;
9801;SDS011;4940;50.900;4.672;2022-09-04T11:36:40;2.85;;;2.22;;
9801;SDS011;4940;50.900;4.672;2022-09-04T11:42:40;3.92;;;2.05;;
9801;SDS011;4940;50.900;4.672;2022-09-04T11:45:39;2.20;;;2.10;;
9801;SDS011;4940;50.900;4.672;2022-09-04T11:48:33;2.28;;;2.10;;
9801;SDS011;4940;50.900;4.672;2022-09-04T11:54:21;2.15;;;2.05;;
9801;SDS011;4940;50.900;4.672;2022-09-04T11:57:11;2.00;;;1.90;;
9801;SDS011;4940;50.900;4.672;2022-09-04T11:59:52;1.80;;;1.70;;
9801;SDS011;4940;50.900;4.672;2022-09-04T12:05:35;1.90;;;1.80;;
9801;SDS011;4940;50.900;4.672;2022-09-04T12:11:08;1.80;;;1.70;;
9801;SDS011;4940;50.900;4.672;2022-09-04T12:17:16;2.17;;;1.70;;
9801;SDS011;4940;50.900;4.672;2022-09-04T12:20:08;1.60;;;1.50;;
9801;SDS011;4940;50.900;4.672;2022-09-04T12:23:16;2.25;;;1.92;;
9801;SDS011;4940;50.900;4.672;2022-09-04T12:26:25;2.20;;;1.88;;
9801;SDS011;4940;50.900;4.672;2022-09-04T12:32:27;1.90;;;1.80;;
9801;SDS011;4940;50.900;4.672;2022-09-04T12:35:30;3.22;;;1.83;;
9801;SDS011;4940;50.900;4.672;2022-09-04T12:41:28;3.05;;;1.60;;
9801;SDS011;4940;50.900;4.672;2022-09-04T12:44:02;2.08;;;1.75;;
9801;SDS011;4940;50.900;4.672;2022-09-04T12:46:43;2.28;;;1.75;;
9801;SDS011;4940;50.900;4.672;2022-09-04T12:49:35;3.00;;;1.55;;
9801;SDS011;4940;50.900;4.672;2022-09-04T12:52:17;1.77;;;1.67;;
9801;SDS011;4940;50.900;4.672;2022-09-04T12:54:57;1.58;;;1.48;;
9801;SDS011;4940;50.900;4.672;2022-09-04T12:57:38;2.65;;;1.70;;
9801;SDS011;4940;50.900;4.672;2022-09-04T13:00:12;1.50;;;1.40;;
9801;SDS011;4940;50.900;4.672;2022-09-04T13:02:48;1.92;;;1.75;;
9801;SDS011;4940;50.900;4.672;2022-09-04T13:05:33;2.10;;;1.65;;
9801;SDS011;4940;50.900;4.672;2022-09-04T13:08:12;3.85;;;1.77;;
9801;SDS011;4940;50.900;4.672;2022-09-04T13:10:48;3.08;;;2.00;;
9801;SDS011;4940;50.900;4.672;2022-09-04T13:13:28;1.85;;;1.70;;
9801;SDS011;4940;50.900;4.672;2022-09-04T13:16:05;1.75;;;1.58;;
9801;SDS011;4940;50.900;4.672;2022-09-04T13:18:44;1.75;;;1.60;;
9801;SDS011;4940;50.900;4.672;2022-09-04T13:21:29;3.53;;;1.75;;
9801;SDS011;4940;50.900;4.672;2022-09-04T13:24:11;1.83;;;1.65;;
9801;SDS011;4940;50.900;4.672;2022-09-04T13:26:56;2.75;;;1.70;;
9801;SDS011;4940;50.900;4.672;2022-09-04T13:29:35;2.85;;;1.70;;
9801;SDS011;4940;50.900;4.672;2022-09-04T13:32:16;2.50;;;1.50;;
9801;SDS011;4940;50.900;4.672;2022-09-04T13:35:09;2.17;;;1.60;;
9801;SDS011;4940;50.900;4.672;2022-09-04T13:37:44;2.00;;;1.70;;
9801;SDS011;4940;50.900;4.672;2022-09-04T13:40:33;2.50;;;2.00;;
9801;SDS011;4940;50.900;4.672;2022-09-04T13:43:20;3.42;;;1.60;;
9801;SDS011;4940;50.900;4.672;2022-09-04T13:46:03;2.25;;;1.73;;
9801;SDS011;4940;50.900;4.672;2022-09-04T13:48:33;1.60;;;1.50;;
9801;SDS011;4940;50.900;4.672;2022-09-04T13:51:06;5.47;;;1.90;;
9801;SDS011;4940;50.900;4.672;2022-09-04T13:53:42;2.08;;;1.70;;
9801;SDS011;4940;50.900;4.672;2022-09-04T13:56:22;1.95;;;1.60;;
9801;SDS011;4940;50.900;4.672;2022-09-04T13:58:56;1.38;;;1.27;;
9801;SDS011;4940;50.900;4.672;2022-09-04T14:01:26;3.15;;;1.70;;
9801;SDS011;4940;50.900;4.672;2022-09-04T14:03:54;4.70;;;1.67;;
9801;SDS011;4940;50.900;4.672;2022-09-04T14:06:25;2.97;;;1.67;;
9801;SDS011;4940;50.900;4.672;2022-09-04T14:08:56;1.92;;;1.70;;
9801;SDS011;4940;50.900;4.672;2022-09-04T14:17:31;2.78;;;1.73;;
9801;SDS011;4940;50.900;4.672;2022-09-04T14:20:07;1.98;;;1.75;;
9801;SDS011;4940;50.900;4.672;2022-09-04T14:22:42;1.90;;;1.80;;
9801;SDS011;4940;50.900;4.672;2022-09-04T14:25:18;1.67;;;1.55;;
9801;SDS011;4940;50.900;4.672;2022-09-04T14:27:53;1.77;;;1.67;;
9801;SDS011;4940;50.900;4.672;2022-09-04T14:30:27;1.60;;;1.50;;
9801;SDS011;4940;50.900;4.672;2022-09-04T14:33:10;1.70;;;1.50;;
9801;SDS011;4940;50.900;4.672;2022-09-04T14:35:50;1.50;;;1.40;;
9801;SDS011;4940;50.900;4.672;2022-09-04T14:38:32;1.60;;;1.50;;
9801;SDS011;4940;50.900;4.672;2022-09-04T14:41:18;2.70;;;1.67;;
9801;SDS011;4940;50.900;4.672;2022-09-04T14:43:59;1.50;;;1.40;;
9801;SDS011;4940;50.900;4.672;2022-09-04T14:46:38;2.08;;;1.58;;
9801;SDS011;4940;50.900;4.672;2022-09-04T14:49:20;1.60;;;1.50;;
9801;SDS011;4940;50.900;4.672;2022-09-04T14:51:51;3.97;;;1.75;;
9801;SDS011;4940;50.900;4.672;2022-09-04T14:54:22;1.60;;;1.50;;
9801;SDS011;4940;50.900;4.672;2022-09-04T14:56:55;2.00;;;1.40;;
9801;SDS011;4940;50.900;4.672;2022-09-04T14:59:26;1.95;;;1.48;;
9801;SDS011;4940;50.900;4.672;2022-09-04T15:01:58;1.77;;;1.67;;
9801;SDS011;4940;50.900;4.672;2022-09-04T15:04:37;2.55;;;1.52;;
9801;SDS011;4940;50.900;4.672;2022-09-04T15:07:22;1.65;;;1.45;;
9801;SDS011;4940;50.900;4.672;2022-09-04T15:10:08;1.48;;;1.38;;
9801;SDS011;4940;50.900;4.672;2022-09-04T15:12:43;2.15;;;1.50;;
9801;SDS011;4940;50.900;4.672;2022-09-04T15:15:19;1.52;;;1.40;;
9801;SDS011;4940;50.900;4.672;2022-09-04T15:17:56;1.50;;;1.40;;
9801;SDS011;4940;50.900;4.672;2022-09-04T15:20:27;2.47;;;1.42;;
9801;SDS011;4940;50.900;4.672;2022-09-04T15:23:00;2.08;;;1.45;;
9801;SDS011;4940;50.900;4.672;2022-09-04T15:25:37;2.05;;;1.45;;
9801;SDS011;4940;50.900;4.672;2022-09-04T15:28:15;1.60;;;1.50;;
9801;SDS011;4940;50.900;4.672;2022-09-04T15:30:58;1.50;;;1.40;;
9801;SDS011;4940;50.900;4.672;2022-09-04T15:33:35;1.85;;;1.30;;
9801;SDS011;4940;50.900;4.672;2022-09-04T15:36:05;3.35;;;1.35;;
9801;SDS011;4940;50.900;4.672;2022-09-04T15:38:34;1.48;;;1.38;;
9801;SDS011;4940;50.900;4.672;2022-09-04T15:41:13;1.35;;;1.25;;
9801;SDS011;4940;50.900;4.672;2022-09-04T15:43:46;2.10;;;1.45;;
9801;SDS011;4940;50.900;4.672;2022-09-04T15:46:18;1.50;;;1.40;;
9801;SDS011;4940;50.900;4.672;2022-09-04T15:48:53;1.65;;;1.48;;
9801;SDS011;4940;50.900;4.672;2022-09-04T15:51:26;1.67;;;1.58;;
9801;SDS011;4940;50.900;4.672;2022-09-04T15:54:24;2.13;;;2.00;;
9801;SDS011;4940;50.900;4.672;2022-09-04T15:57:16;1.63;;;1.40;;
9801;SDS011;4940;50.900;4.672;2022-09-04T15:59:50;1.40;;;1.30;;
9801;SDS011;4940;50.900;4.672;2022-09-04T16:02:26;1.83;;;1.40;;
9801;SDS011;4940;50.900;4.672;2022-09-04T16:05:02;1.65;;;1.52;;
9801;SDS011;4940;50.900;4.672;2022-09-04T16:07:41;1.52;;;1.42;;
9801;SDS011;4940;50.900;4.672;2022-09-04T16:10:15;1.58;;;1.48;;
9801;SDS011;4940;50.900;4.672;2022-09-04T16:12:51;1.58;;;1.48;;
9801;SDS011;4940;50.900;4.672;2022-09-04T16:15:26;1.50;;;1.40;;
9801;SDS011;4940;50.900;4.672;2022-09-04T16:17:58;1.70;;;1.42;;
9801;SDS011;4940;50.900;4.672;2022-09-04T16:20:32;1.83;;;1.30;;
9801;SDS011;4940;50.900;4.672;2022-09-04T16:23:03;1.98;;;1.60;;
9801;SDS011;4940;50.900;4.672;2022-09-04T16:25:33;1.35;;;1.25;;
9801;SDS011;4940;50.900;4.672;2022-09-04T16:28:04;2.55;;;1.60;;
9801;SDS011;4940;50.900;4.672;2022-09-04T16:30:36;1.48;;;1.38;;
9801;SDS011;4940;50.900;4.672;2022-09-04T16:33:06;1.65;;;1.25;;
9801;SDS011;4940;50.900;4.672;2022-09-04T16:35:45;1.35;;;1.15;;
9801;SDS011;4940;50.900;4.672;2022-09-04T16:38:15;1.50;;;1.40;;
9801;SDS011;4940;50.900;4.672;2022-09-04T16:40:46;2.38;;;1.52;;
9801;SDS011;4940;50.900;4.672;2022-09-04T16:43:21;3.33;;;1.50;;
9801;SDS011;4940;50.900;4.672;2022-09-04T16:45:59;1.50;;;1.20;;
9801;SDS011;4940;50.900;4.672;2022-09-04T16:48:34;1.40;;;1.20;;
9801;SDS011;4940;50.900;4.672;2022-09-04T16:51:11;1.65;;;1.30;;
9801;SDS011;4940;50.900;4.672;2022-09-04T16:53:52;3.28;;;1.42;;
9801;SDS011;4940;50.900;4.672;2022-09-04T16:56:30;2.55;;;1.30;;
9801;SDS011;4940;50.900;4.672;2022-09-04T16:59:08;1.33;;;1.23;;
9801;SDS011;4940;50.900;4.672;2022-09-04T17:01:43;1.45;;;1.27;;
9801;SDS011;4940;50.900;4.672;2022-09-04T17:04:17;1.38;;;1.25;;
9801;SDS011;4940;50.900;4.672;2022-09-04T17:06:54;1.10;;;1.00;;
9801;SDS011;4940;50.900;4.672;2022-09-04T17:09:30;1.38;;;1.27;;
9801;SDS011;4940;50.900;4.672;2022-09-04T17:12:13;2.75;;;1.40;;
9801;SDS011;4940;50.900;4.672;2022-09-04T17:14:48;2.13;;;1.50;;
9801;SDS011;4940;50.900;4.672;2022-09-04T17:17:20;1.13;;;1.13;;
9801;SDS011;4940;50.900;4.672;2022-09-04T17:19:58;1.40;;;1.17;;
9801;SDS011;4940;50.900;4.672;2022-09-04T17:22:28;2.75;;;1.60;;
9801;SDS011;4940;50.900;4.672;2022-09-04T17:25:06;1.80;;;1.33;;
9801;SDS011;4940;50.900;4.672;2022-09-04T17:27:41;1.92;;;1.50;;
9801;SDS011;4940;50.900;4.672;2022-09-04T17:30:15;1.52;;;1.17;;
9801;SDS011;4940;50.900;4.672;2022-09-04T17:32:53;2.55;;;1.40;;
9801;SDS011;4940;50.900;4.672;2022-09-04T17:35:26;2.28;;;1.40;;
9801;SDS011;4940;50.900;4.672;2022-09-04T17:38:01;5.00;;;1.30;;
9801;SDS011;4940;50.900;4.672;2022-09-04T17:40:36;1.42;;;1.17;;
9801;SDS011;4940;50.900;4.672;2022-09-04T17:43:17;1.58;;;1.42;;
9801;SDS011;4940;50.900;4.672;2022-09-04T17:45:54;1.52;;;1.38;;
9801;SDS011;4940;50.900;4.672;2022-09-04T17:48:32;2.20;;;1.50;;
9801;SDS011;4940;50.900;4.672;2022-09-04T17:51:05;1.30;;;1.20;;
9801;SDS011;4940;50.900;4.672;2022-09-04T17:53:35;2.75;;;1.30;;
9801;SDS011;4940;50.900;4.672;2022-09-04T17:56:06;1.75;;;1.27;;
9801;SDS011;4940;50.900;4.672;2022-09-04T17:58:39;3.58;;;1.30;;
9801;SDS011;4940;50.900;4.672;2022-09-04T18:01:15;1.63;;;1.35;;
9801;SDS011;4940;50.900;4.672;2022-09-04T18:03:49;1.63;;;1.20;;
9801;SDS011;4940;50.900;4.672;2022-09-04T18:06:27;1.40;;;1.30;;
9801;SDS011;4940;50.900;4.672;2022-09-04T18:09:07;1.30;;;1.20;;
9801;SDS011;4940;50.900;4.672;2022-09-04T18:11:41;1.25;;;1.13;;
9801;SDS011;4940;50.900;4.672;2022-09-04T18:14:13;1.40;;;1.30;;
9801;SDS011;4940;50.900;4.672;2022-09-04T18:16:50;1.50;;;1.40;;
9801;SDS011;4940;50.900;4.672;2022-09-04T18:19:24;2.38;;;1.55;;
9801;SDS011;4940;50.900;4.672;2022-09-04T18:21:55;1.48;;;1.27;;
9801;SDS011;4940;50.900;4.672;2022-09-04T18:24:27;2.65;;;1.58;;
9801;SDS011;4940;50.900;4.672;2022-09-04T18:27:00;1.30;;;1.20;;
9801;SDS011;4940;50.900;4.672;2022-09-04T18:29:37;2.00;;;1.60;;
9801;SDS011;4940;50.900;4.672;2022-09-04T18:32:16;4.03;;;1.50;;
9801;SDS011;4940;50.900;4.672;2022-09-04T18:34:52;1.67;;;1.30;;
9801;SDS011;4940;50.900;4.672;2022-09-04T18:37:25;1.33;;;1.23;;
9801;SDS011;4940;50.900;4.672;2022-09-04T18:40:04;2.35;;;1.35;;
9801;SDS011;4940;50.900;4.672;2022-09-04T18:42:39;4.65;;;1.40;;
9801;SDS011;4940;50.900;4.672;2022-09-04T18:45:13;1.70;;;1.58;;
9801;SDS011;4940;50.900;4.672;2022-09-04T18:47:46;2.63;;;1.25;;
9801;SDS011;4940;50.900;4.672;2022-09-04T18:50:22;1.83;;;1.40;;
9801;SDS011;4940;50.900;4.672;2022-09-04T18:52:56;1.15;;;1.00;;
9801;SDS011;4940;50.900;4.672;2022-09-04T18:55:29;4.35;;;1.33;;
9801;SDS011;4940;50.900;4.672;2022-09-04T18:58:16;3.45;;;1.50;;
9801;SDS011;4940;50.900;4.672;2022-09-04T19:01:06;2.83;;;1.40;;
9801;SDS011;4940;50.900;4.672;2022-09-04T19:03:40;6.03;;;1.50;;
9801;SDS011;4940;50.900;4.672;2022-09-04T19:06:13;1.85;;;1.38;;